createdAt,value
2019-05-22T00:00:40.972Z,31.83
2019-05-22T00:03:20.108Z,25.50
2019-05-22T00:05:50.254Z,33.93
2019-05-22T00:08:19.569Z,30.97
2019-05-22T00:10:49.782Z,32.60
2019-05-22T00:13:20.165Z,32.83
2019-05-22T00:15:50.289Z,27.43
2019-05-22T00:18:19.626Z,33.00
2019-05-22T00:20:49.752Z,33.37
2019-05-22T00:23:18.741Z,34.07
2019-05-22T00:25:47.564Z,32.60
2019-05-22T00:28:17.930Z,34.93
2019-05-22T00:31:05.912Z,32.63
2019-05-22T00:33:36.468Z,35.57
2019-05-22T00:36:06.747Z,35.27
2019-05-22T00:38:36.876Z,34.83
2019-05-22T00:41:09.770Z,36.07
2019-05-22T00:43:39.789Z,31.27
2019-05-22T00:46:09.933Z,34.80
2019-05-22T00:48:40.734Z,31.40
2019-05-22T00:51:11.156Z,33.63
2019-05-22T00:53:50.376Z,31.77
2019-05-22T00:56:32.321Z,33.23
2019-05-22T00:59:08.269Z,30.63
2019-05-22T01:01:39.947Z,34.00
2019-05-22T01:04:10.075Z,32.50
2019-05-22T01:06:38.928Z,30.73
2019-05-22T01:09:10.010Z,33.70
2019-05-22T01:11:39.616Z,31.17
2019-05-22T01:14:09.502Z,30.57
2019-05-22T01:16:39.770Z,32.97
2019-05-22T01:19:08.225Z,35.73
2019-05-22T01:21:38.364Z,32.43
2019-05-22T01:24:07.894Z,29.70
2019-05-22T01:26:36.665Z,33.17
2019-05-22T01:29:06.125Z,32.03
2019-05-22T01:31:42.073Z,30.77
2019-05-22T01:34:15.371Z,34.93
2019-05-22T01:36:45.658Z,33.70
2019-05-22T01:39:18.381Z,33.53
2019-05-22T01:41:48.339Z,33.50
2019-05-22T01:44:17.849Z,34.03
2019-05-22T01:46:46.333Z,33.73
2019-05-22T01:49:18.917Z,31.13
2019-05-22T01:51:47.441Z,32.20
2019-05-22T01:54:16.141Z,35.27
2019-05-22T01:56:46.071Z,33.70
2019-05-22T01:59:15.505Z,32.67
2019-05-22T02:01:45.324Z,33.47
2019-05-22T02:04:14.899Z,33.50
2019-05-22T02:06:45.168Z,34.67
2019-05-22T02:09:33.365Z,35.00
2019-05-22T02:12:09.273Z,33.77
2019-05-22T02:14:38.683Z,33.23
2019-05-22T02:17:07.898Z,32.63
2019-05-22T02:19:36.373Z,35.23
2019-05-22T02:22:06.459Z,36.10
2019-05-22T02:24:36.522Z,36.57
2019-05-22T02:27:06.233Z,31.13
2019-05-22T02:29:35.954Z,35.93
2019-05-22T02:32:06.730Z,38.53
2019-05-22T02:34:35.892Z,39.97
2019-05-22T02:37:05.972Z,38.03
2019-05-22T02:39:36.064Z,34.80
2019-05-22T02:42:15.502Z,38.30
2019-05-22T02:44:45.846Z,37.40
2019-05-22T02:47:19.899Z,37.77
2019-05-22T02:49:46.138Z,38.07
2019-05-22T02:52:15.720Z,37.10
2019-05-22T02:54:44.285Z,40.90
2019-05-22T02:57:13.400Z,43.93
2019-05-22T02:59:42.465Z,48.13
2019-05-22T03:02:12.855Z,46.20
2019-05-22T03:04:56.328Z,44.23
2019-05-22T03:07:26.004Z,42.17
2019-05-22T03:09:54.950Z,36.73
2019-05-22T03:12:24.464Z,37.47
2019-05-22T03:14:53.030Z,35.30
2019-05-22T03:17:28.073Z,37.23
2019-05-22T03:19:58.182Z,35.03
2019-05-22T03:22:28.701Z,40.40
2019-05-22T03:25:00.327Z,41.40
2019-05-22T03:27:38.976Z,41.10
2019-05-22T03:30:11.129Z,42.17
2019-05-22T03:32:43.647Z,41.67
2019-05-22T03:35:10.537Z,41.43
2019-05-22T03:37:39.857Z,37.53
2019-05-22T03:40:09.223Z,39.43
2019-05-22T03:42:37.991Z,36.57
2019-05-22T03:45:10.553Z,35.60
2019-05-22T03:47:40.635Z,36.03
2019-05-22T03:50:09.656Z,37.27
2019-05-22T03:52:38.553Z,34.73
2019-05-22T03:55:07.841Z,35.30
2019-05-22T03:57:37.093Z,33.50
2019-05-22T04:00:08.860Z,31.70
2019-05-22T04:02:37.374Z,33.17
2019-05-22T04:05:09.052Z,33.37
2019-05-22T04:07:39.432Z,34.37
2019-05-22T04:10:10.415Z,33.63
2019-05-22T04:12:39.129Z,33.27
2019-05-22T04:15:09.388Z,33.87
2019-05-22T04:17:39.997Z,33.27
2019-05-22T04:20:09.261Z,34.43
2019-05-22T04:22:37.824Z,28.90
2019-05-22T04:25:07.910Z,34.70
2019-05-22T04:27:36.464Z,37.10
2019-05-22T04:30:09.333Z,28.27
2019-05-22T04:32:42.260Z,35.13
2019-05-22T04:35:12.329Z,35.20
2019-05-22T04:37:41.888Z,35.70
2019-05-22T04:40:25.871Z,35.80
2019-05-22T04:42:57.962Z,34.70
2019-05-22T04:45:27.182Z,34.17
2019-05-22T04:47:58.647Z,32.57
2019-05-22T04:50:28.949Z,35.17
2019-05-22T04:52:57.538Z,28.40
2019-05-22T04:55:27.091Z,29.77
2019-05-22T04:57:55.660Z,31.53
2019-05-22T05:00:24.107Z,33.27
2019-05-22T05:02:52.948Z,31.80
2019-05-22T05:05:23.165Z,34.83
2019-05-22T05:07:52.298Z,32.27
2019-05-22T05:10:21.110Z,31.43
2019-05-22T05:12:49.676Z,33.57
2019-05-22T05:15:18.490Z,35.47
2019-05-22T05:17:47.022Z,32.23
2019-05-22T05:20:22.637Z,33.27
2019-05-22T05:22:46.363Z,35.70
2019-05-22T05:25:16.594Z,34.07
2019-05-22T05:27:45.373Z,31.70
2019-05-22T05:30:14.857Z,38.50
2019-05-22T05:32:43.697Z,42.17
2019-05-22T05:35:12.920Z,32.50
2019-05-22T05:37:41.633Z,37.93
2019-05-22T05:40:31.367Z,37.50
2019-05-22T05:43:00.161Z,42.60
2019-05-22T05:45:29.285Z,36.37
2019-05-22T05:47:58.328Z,43.47
2019-05-22T05:50:39.008Z,42.70
2019-05-22T05:53:00.077Z,44.07
2019-05-22T05:55:33.524Z,41.77
2019-05-22T05:58:21.444Z,38.73
2019-05-22T06:00:54.326Z,45.57
2019-05-22T06:03:39.686Z,44.67
2019-05-22T06:06:28.736Z,43.90
2019-05-22T06:09:00.677Z,43.37
2019-05-22T06:11:39.394Z,48.83
2019-05-22T06:14:08.825Z,51.27
2019-05-22T06:16:54.524Z,50.57
2019-05-22T06:19:23.974Z,49.83
2019-05-22T06:21:52.700Z,49.47
2019-05-22T06:24:38.420Z,50.50
2019-05-22T06:27:11.823Z,50.30
2019-05-22T06:29:57.698Z,49.37
2019-05-22T06:32:36.695Z,51.70
2019-05-22T06:35:07.793Z,47.50
2019-05-22T06:37:45.453Z,47.53
2019-05-22T06:40:14.872Z,44.70
2019-05-22T06:42:45.265Z,50.17
2019-05-22T06:45:13.770Z,49.73
2019-05-22T06:47:42.573Z,49.80
2019-05-22T06:50:11.179Z,50.87
2019-05-22T06:52:39.749Z,48.80
2019-05-22T06:55:08.318Z,45.07
2019-05-22T06:57:36.868Z,45.07
2019-05-22T07:00:14.231Z,40.90
2019-05-22T07:02:38.692Z,45.33
2019-05-22T07:05:07.651Z,41.53
2019-05-22T07:07:36.097Z,44.23
2019-05-22T07:10:06.661Z,38.47
2019-05-22T07:12:36.321Z,43.03
2019-05-22T07:15:08.705Z,44.23
2019-05-22T07:17:37.715Z,44.20
2019-05-22T07:20:06.745Z,44.23
2019-05-22T07:22:35.564Z,42.57
2019-05-22T07:25:06.216Z,39.10
2019-05-22T07:27:34.712Z,39.20
2019-05-22T07:30:04.429Z,39.00
2019-05-22T07:32:32.986Z,42.10
2019-05-22T07:35:01.550Z,44.53
2019-05-22T07:37:30.307Z,42.20
2019-05-22T07:39:58.758Z,41.93
2019-05-22T07:42:27.250Z,39.60
2019-05-22T07:44:55.699Z,38.97
2019-05-22T07:47:24.588Z,40.87
2019-05-22T07:49:53.410Z,40.73
2019-05-22T07:52:22.140Z,39.47
2019-05-22T07:54:50.929Z,38.67
2019-05-22T07:57:21.382Z,41.53
2019-05-22T07:59:49.826Z,38.50
2019-05-22T08:02:18.950Z,36.03
2019-05-22T08:04:47.623Z,36.70
2019-05-22T08:07:17.888Z,36.30
2019-05-22T08:09:46.405Z,40.17
2019-05-22T08:12:15.566Z,41.13
2019-05-22T08:14:44.126Z,38.77
2019-05-22T08:17:12.542Z,35.50
2019-05-22T08:19:41.033Z,36.67
2019-05-22T08:22:09.494Z,37.17
2019-05-22T08:24:38.039Z,36.37
2019-05-22T08:27:07.166Z,36.73
2019-05-22T08:29:35.686Z,34.07
2019-05-22T08:32:05.217Z,36.33
2019-05-22T08:34:33.905Z,36.50
2019-05-22T08:37:02.399Z,35.47
2019-05-22T08:39:30.846Z,35.63
2019-05-22T08:41:59.340Z,37.07
2019-05-22T08:44:27.785Z,34.17
2019-05-22T08:46:56.829Z,34.47
2019-05-22T08:49:25.769Z,27.90
2019-05-22T08:51:54.324Z,28.20
2019-05-22T08:54:22.832Z,30.23
2019-05-22T08:56:51.559Z,29.37
2019-05-22T08:59:20.365Z,29.83
2019-05-22T09:01:49.769Z,26.93
2019-05-22T09:04:18.201Z,25.77
2019-05-22T09:06:46.714Z,26.10
2019-05-22T09:09:15.774Z,27.63
2019-05-22T09:11:44.265Z,27.90
2019-05-22T09:14:12.758Z,29.43
2019-05-22T09:16:41.203Z,28.53
2019-05-22T09:19:09.674Z,29.70
2019-05-22T09:21:40.663Z,29.70
2019-05-22T09:24:12.809Z,32.90
2019-05-22T09:26:42.270Z,33.70
2019-05-22T09:29:10.744Z,33.60
2019-05-22T09:31:39.196Z,34.33
2019-05-22T09:34:07.709Z,36.87
2019-05-22T09:36:36.323Z,36.97
2019-05-22T09:39:07.242Z,35.80
2019-05-22T09:41:36.201Z,32.50
2019-05-22T09:44:04.821Z,33.10
2019-05-22T09:46:33.489Z,34.50
2019-05-22T09:49:03.384Z,31.43
2019-05-22T09:51:32.928Z,29.30
2019-05-22T09:54:02.215Z,26.70
2019-05-22T09:56:31.030Z,25.83
2019-05-22T09:58:59.894Z,27.03
2019-05-22T10:01:28.353Z,24.80
2019-05-22T10:03:56.990Z,22.43
2019-05-22T10:06:25.460Z,22.07
2019-05-22T10:08:53.876Z,26.70
2019-05-22T10:11:22.373Z,29.03
2019-05-22T10:13:50.957Z,29.17
2019-05-22T10:16:19.556Z,30.13
2019-05-22T10:18:52.295Z,30.27
2019-05-22T10:21:18.853Z,31.10
2019-05-22T10:23:47.829Z,28.53
2019-05-22T10:26:16.395Z,26.17
2019-05-22T10:28:45.247Z,26.40
2019-05-22T10:31:16.518Z,27.47
2019-05-22T10:33:44.328Z,25.07
2019-05-22T10:36:13.146Z,25.43
2019-05-22T10:38:41.619Z,25.27
2019-05-22T10:41:10.877Z,29.83
2019-05-22T10:43:39.344Z,27.70
2019-05-22T10:46:08.760Z,29.87
2019-05-22T10:48:40.105Z,28.67
2019-05-22T10:51:07.496Z,29.03
2019-05-22T10:53:37.081Z,30.90
2019-05-22T10:56:06.030Z,27.53
2019-05-22T10:58:34.617Z,16.40
2019-05-22T11:01:03.254Z,10.87
2019-05-22T11:03:32.613Z,9.53
2019-05-22T11:06:07.307Z,8.80
2019-05-22T11:08:34.328Z,9.07
2019-05-22T11:11:01.737Z,9.20
2019-05-22T11:13:34.035Z,8.90
2019-05-22T11:16:00.481Z,9.13
2019-05-22T11:18:29.000Z,9.50
2019-05-22T11:20:57.451Z,10.40
2019-05-22T11:23:26.481Z,9.67
2019-05-22T11:25:55.019Z,10.83
2019-05-22T11:28:23.493Z,10.13
2019-05-22T11:30:52.209Z,9.83
2019-05-22T11:33:20.967Z,9.73
2019-05-22T11:35:49.880Z,9.37
2019-05-22T11:38:18.333Z,10.73
2019-05-22T11:40:46.822Z,11.23
2019-05-22T11:43:15.543Z,11.77
2019-05-22T11:45:45.383Z,10.87
2019-05-22T11:48:14.883Z,12.67
2019-05-22T11:50:44.209Z,12.23
2019-05-22T11:53:13.549Z,12.40
2019-05-22T11:55:45.638Z,12.33
2019-05-22T11:58:12.282Z,13.17
2019-05-22T12:00:40.801Z,12.87
2019-05-22T12:03:09.265Z,11.50
2019-05-22T12:05:38.125Z,12.17
2019-05-22T12:08:06.642Z,11.93
2019-05-22T12:10:35.665Z,12.20
2019-05-22T12:13:04.751Z,12.33
2019-05-22T12:15:33.773Z,11.50
2019-05-22T12:18:02.494Z,11.33
2019-05-22T12:20:31.872Z,12.37
2019-05-22T12:23:00.317Z,11.23
2019-05-22T12:25:28.890Z,11.00
2019-05-22T12:27:57.409Z,12.70
2019-05-22T12:30:25.997Z,13.03
2019-05-22T12:32:55.465Z,12.20
2019-05-22T12:35:23.958Z,11.77
2019-05-22T12:37:52.477Z,12.87
2019-05-22T12:40:21.058Z,11.77
2019-05-22T12:42:49.949Z,10.90
2019-05-22T12:45:23.574Z,11.43
2019-05-22T12:47:52.025Z,12.50
2019-05-22T12:50:20.529Z,10.17
2019-05-22T12:52:49.139Z,12.73
2019-05-22T12:55:18.608Z,11.27
2019-05-22T12:57:48.034Z,10.97
2019-05-22T13:00:17.521Z,11.00
2019-05-22T13:02:46.440Z,10.30
2019-05-22T13:05:15.027Z,12.60
2019-05-22T13:07:43.501Z,11.83
2019-05-22T13:10:11.996Z,10.93
2019-05-22T13:12:40.513Z,11.73
2019-05-22T13:15:10.831Z,11.60
2019-05-22T13:17:39.674Z,11.63
2019-05-22T13:20:08.276Z,12.10
2019-05-22T13:22:37.694Z,11.83
2019-05-22T13:25:07.453Z,11.87
2019-05-22T13:27:36.446Z,11.50
2019-05-22T13:30:08.235Z,12.47
2019-05-22T13:32:36.795Z,11.63
2019-05-22T13:35:07.849Z,10.40
2019-05-22T13:37:36.905Z,10.57
2019-05-22T13:40:06.364Z,11.43
2019-05-22T13:42:34.857Z,10.17
2019-05-22T13:45:05.147Z,9.60
2019-05-22T13:47:34.005Z,10.93
2019-05-22T13:50:02.617Z,9.03
2019-05-22T13:52:31.281Z,9.30
2019-05-22T13:55:00.404Z,9.27
2019-05-22T13:57:29.113Z,8.83
2019-05-22T13:59:57.593Z,8.90
2019-05-22T14:02:27.251Z,9.67
2019-05-22T14:04:56.106Z,9.37
2019-05-22T14:07:24.545Z,9.57
2019-05-22T14:09:53.045Z,10.50
2019-05-22T14:12:22.409Z,9.93
2019-05-22T14:14:51.217Z,9.40
2019-05-22T14:17:19.705Z,9.67
2019-05-22T14:19:48.429Z,10.80
2019-05-22T14:22:16.979Z,10.57
2019-05-22T14:24:45.489Z,10.40
2019-05-22T14:27:13.938Z,11.00
2019-05-22T14:29:42.421Z,11.50
2019-05-22T14:32:11.862Z,11.23
2019-05-22T14:34:40.304Z,11.03
2019-05-22T14:37:09.130Z,11.40
2019-05-22T14:39:37.957Z,11.80
2019-05-22T14:42:06.477Z,10.10
2019-05-22T14:44:34.957Z,10.30
2019-05-22T14:47:13.246Z,10.87
2019-05-22T14:49:33.613Z,9.63
2019-05-22T14:52:02.333Z,9.97
2019-05-22T14:54:30.829Z,8.93
2019-05-22T14:56:59.281Z,9.97
2019-05-22T14:59:27.843Z,10.43
2019-05-22T15:01:56.418Z,10.80
2019-05-22T15:04:25.406Z,10.03
2019-05-22T15:06:54.006Z,8.60
2019-05-22T15:09:22.489Z,9.23
2019-05-22T15:11:51.510Z,8.90
2019-05-22T15:14:21.008Z,10.00
2019-05-22T15:16:49.480Z,9.13
2019-05-22T15:19:18.270Z,8.10
2019-05-22T15:21:46.728Z,7.57
2019-05-22T15:24:15.293Z,7.60
2019-05-22T15:26:43.734Z,8.10
2019-05-22T15:29:12.181Z,8.30
2019-05-22T15:31:40.683Z,7.67
2019-05-22T15:34:10.390Z,8.10
2019-05-22T15:36:39.763Z,8.00
2019-05-22T15:39:10.913Z,7.23
2019-05-22T15:41:39.474Z,7.87
2019-05-22T15:44:08.794Z,8.20
2019-05-22T15:46:37.358Z,8.80
2019-05-22T15:49:05.929Z,5.63
2019-05-22T15:51:34.531Z,8.27
2019-05-22T15:54:05.681Z,6.87
2019-05-22T15:56:34.500Z,7.67
2019-05-22T15:59:02.986Z,5.30
2019-05-22T16:01:32.446Z,5.97
2019-05-22T16:04:01.266Z,6.00
2019-05-22T16:06:29.977Z,5.30
2019-05-22T16:08:58.655Z,5.53
2019-05-22T16:11:27.663Z,5.33
2019-05-22T16:13:56.929Z,5.37
2019-05-22T16:16:26.093Z,6.70
2019-05-22T16:18:54.905Z,6.10
2019-05-22T16:21:23.354Z,6.27
2019-05-22T16:23:51.874Z,7.13
2019-05-22T16:26:20.869Z,6.00
2019-05-22T16:28:49.320Z,7.43
2019-05-22T16:31:19.549Z,6.83
2019-05-22T16:33:48.073Z,6.60
2019-05-22T16:36:17.486Z,6.70
2019-05-22T16:38:46.484Z,6.00
2019-05-22T16:41:15.247Z,6.37
2019-05-22T16:43:49.345Z,5.87
2019-05-22T16:46:14.213Z,6.87
2019-05-22T16:48:43.268Z,7.20
2019-05-22T16:51:12.838Z,6.00
2019-05-22T16:53:42.033Z,5.97
2019-05-22T16:56:10.582Z,6.10
2019-05-22T16:58:39.037Z,5.73
2019-05-22T17:01:07.894Z,6.63
2019-05-22T17:03:36.406Z,5.13
2019-05-22T17:06:05.005Z,4.77
2019-05-22T17:08:33.877Z,4.80
2019-05-22T17:11:02.591Z,5.23
2019-05-22T17:13:32.570Z,3.80
2019-05-22T17:16:01.660Z,3.10
2019-05-22T17:18:45.853Z,3.17
2019-05-22T17:21:01.520Z,3.10
2019-05-22T17:23:30.033Z,2.27
2019-05-22T17:25:58.819Z,2.70
2019-05-22T17:28:27.842Z,2.07
2019-05-22T17:30:56.357Z,2.10
2019-05-22T17:33:25.333Z,2.50
2019-05-22T17:35:54.046Z,2.90
2019-05-22T17:38:23.237Z,2.80
2019-05-22T17:40:52.262Z,2.90
2019-05-22T17:43:20.940Z,2.47
2019-05-22T17:45:49.998Z,3.10
2019-05-22T17:48:19.205Z,2.77
2019-05-22T17:50:47.689Z,2.67
2019-05-22T17:53:18.038Z,2.80
2019-05-22T17:55:48.276Z,3.20
2019-05-22T17:58:16.956Z,3.30
2019-05-22T18:00:47.036Z,2.70
2019-05-22T18:03:15.629Z,2.90
2019-05-22T18:05:47.959Z,2.83
2019-05-22T18:08:16.982Z,2.70
2019-05-22T18:10:47.715Z,3.10
2019-05-22T18:13:16.657Z,3.10
2019-05-22T18:15:46.070Z,2.17
2019-05-22T18:18:14.946Z,2.30
2019-05-22T18:20:44.333Z,2.40
2019-05-22T18:23:13.477Z,2.10
2019-05-22T18:25:43.417Z,2.60
2019-05-22T18:28:11.861Z,2.53
2019-05-22T18:30:42.312Z,2.90
2019-05-22T18:33:11.929Z,3.13
2019-05-22T18:35:40.440Z,4.03
2019-05-22T18:38:08.938Z,3.40
2019-05-22T18:40:37.414Z,3.03
2019-05-22T18:43:05.977Z,3.73
2019-05-22T18:45:35.303Z,3.87
2019-05-22T18:48:03.852Z,3.50
2019-05-22T18:50:33.085Z,3.60
2019-05-22T18:53:01.577Z,4.03
2019-05-22T18:55:30.025Z,3.00
2019-05-22T18:57:58.608Z,3.70
2019-05-22T19:00:28.742Z,3.40
2019-05-22T19:02:57.754Z,3.80
2019-05-22T19:05:27.450Z,3.43
2019-05-22T19:07:56.003Z,3.43
2019-05-22T19:10:24.525Z,3.70
2019-05-22T19:12:53.037Z,3.27
2019-05-22T19:15:21.632Z,3.27
2019-05-22T19:17:50.578Z,3.30
2019-05-22T19:20:19.028Z,3.33
2019-05-22T19:22:59.084Z,3.07
2019-05-22T19:25:17.698Z,3.37
2019-05-22T19:27:46.140Z,3.00
2019-05-22T19:30:16.391Z,2.80
2019-05-22T19:32:45.010Z,2.90
2019-05-22T19:35:13.442Z,2.80
2019-05-22T19:37:42.017Z,3.60
2019-05-22T19:40:12.169Z,3.53
2019-05-22T19:42:41.077Z,3.60
2019-05-22T19:45:11.208Z,2.80
2019-05-22T19:47:43.024Z,3.37
2019-05-22T19:50:22.761Z,3.60
2019-05-22T19:52:42.617Z,3.87
2019-05-22T19:55:12.701Z,3.90
2019-05-22T19:57:41.772Z,3.60
2019-05-22T20:00:12.359Z,3.30
2019-05-22T20:02:41.590Z,3.87
2019-05-22T20:05:10.411Z,3.67
2019-05-22T20:07:39.301Z,3.17
2019-05-22T20:10:09.220Z,3.33
2019-05-22T20:12:38.230Z,3.37
2019-05-22T20:15:09.929Z,3.70
2019-05-22T20:17:38.656Z,3.17
2019-05-22T20:20:11.897Z,3.83
2019-05-22T20:22:41.088Z,3.13
2019-05-22T20:25:10.124Z,3.73
2019-05-22T20:27:39.054Z,3.63
2019-05-22T20:30:07.939Z,3.20
2019-05-22T20:32:38.246Z,3.47
2019-05-22T20:35:07.316Z,3.10
2019-05-22T20:37:35.752Z,3.13
2019-05-22T20:40:06.801Z,4.03
2019-05-22T20:42:35.976Z,3.07
2019-05-22T20:45:07.181Z,3.13
2019-05-22T20:47:37.630Z,3.57
2019-05-22T20:50:08.569Z,3.50
2019-05-22T20:52:37.390Z,3.13
2019-05-22T20:55:07.341Z,3.57
2019-05-22T20:57:35.918Z,3.93
2019-05-22T21:00:08.237Z,3.93
2019-05-22T21:02:37.379Z,3.20
2019-05-22T21:05:09.197Z,3.30
2019-05-22T21:07:39.858Z,3.40
2019-05-22T21:10:09.209Z,3.90
2019-05-22T21:12:37.954Z,4.30
2019-05-22T21:15:06.917Z,4.70
2019-05-22T21:17:37.165Z,4.83
2019-05-22T21:20:10.373Z,3.73
2019-05-22T21:22:39.254Z,4.83
2019-05-22T21:25:07.914Z,4.17
2019-05-22T21:27:38.063Z,4.50
2019-05-22T21:30:10.536Z,3.63
2019-05-22T21:32:39.457Z,4.33
2019-05-22T21:35:08.232Z,4.10
2019-05-22T21:37:37.413Z,4.73
2019-05-22T21:40:06.574Z,5.33
2019-05-22T21:42:36.454Z,4.97
2019-05-22T21:45:07.417Z,5.23
2019-05-22T21:47:36.461Z,5.60
2019-05-22T21:50:08.285Z,5.03
2019-05-22T21:52:36.847Z,6.17
2019-05-22T21:55:07.906Z,4.97
2019-05-22T21:57:37.965Z,4.53
2019-05-22T22:00:13.093Z,5.37
2019-05-22T22:02:43.877Z,5.00
2019-05-22T22:05:12.797Z,4.10
2019-05-22T22:07:42.097Z,5.20
2019-05-22T22:10:11.820Z,5.00
2019-05-22T22:12:41.826Z,5.33
2019-05-22T22:15:10.788Z,5.10
2019-05-22T22:17:39.605Z,4.53
2019-05-22T22:20:08.381Z,4.87
2019-05-22T22:22:36.932Z,5.70
2019-05-22T22:25:06.922Z,5.07
2019-05-22T22:27:36.231Z,5.30
2019-05-22T22:30:11.765Z,5.47
2019-05-22T22:32:41.025Z,5.57
2019-05-22T22:35:10.576Z,5.17
2019-05-22T22:37:39.637Z,5.27
2019-05-22T22:40:08.896Z,5.27
2019-05-22T22:42:38.034Z,6.50
2019-05-22T22:45:09.504Z,4.53
2019-05-22T22:47:39.589Z,4.93
2019-05-22T22:50:08.092Z,5.33
2019-05-22T22:52:37.641Z,5.70
2019-05-22T22:55:08.881Z,6.00
2019-05-22T22:57:38.513Z,4.67
2019-05-22T23:00:08.964Z,5.63
2019-05-22T23:02:39.159Z,5.00
2019-05-22T23:05:07.640Z,5.17
2019-05-22T23:07:36.701Z,4.93
2019-05-22T23:10:09.654Z,6.00
2019-05-22T23:12:39.573Z,5.17
2019-05-22T23:15:09.870Z,5.73
2019-05-22T23:17:38.853Z,6.67
2019-05-22T23:20:08.085Z,5.83
2019-05-22T23:22:35.680Z,6.73
2019-05-22T23:25:04.278Z,5.50
2019-05-22T23:27:33.217Z,5.70
2019-05-22T23:30:02.982Z,6.33
2019-05-22T23:32:31.769Z,6.07
2019-05-22T23:35:01.305Z,6.93
2019-05-22T23:37:29.965Z,6.93
2019-05-22T23:39:59.428Z,5.87
2019-05-22T23:42:31.495Z,6.60
2019-05-22T23:45:00.721Z,6.00
2019-05-22T23:47:29.694Z,7.17
2019-05-22T23:49:59.047Z,6.10
2019-05-22T23:52:27.955Z,6.10
2019-05-22T23:54:57.316Z,6.60
2019-05-22T23:57:28.609Z,7.53
2019-05-22T23:59:58.933Z,6.53
